Calarasi, Romania
Current Conditions -  °F | °C
As of 9:30 PM on Friday 24 Oct 2014 (Local Time) from LRBS Reporting Station
Broken Clouds Broken Clouds  
Wind Chill: 28°   Ceiling: 1400
Heat Index: 39°   Visibility: 6mi
Dew Point: 34°   Wind: 25mph
Humidity: 81%   Direction: 40°NE
Pressure: 30.15"   Gusts: NA
Location:  44.2°N, 27.33°E
Report Text: LRBS 241830Z 04022KT 9999 BKN014 04/01 Q1021 NOSIG
Loading
Personal Weather Stations






























Interactive Weather Map
Tropical Storm Tracking
New forecast layout! Learn more

10-Day Weather Forecast

Advertisements
Track Severe Weather on mobile